This is the latest recevied weather packets stored in our database for station/object KC7UNY-13. If no packets are shown the sender has not sent any weather packets the latest 10 day(s).
| Time | Temp. | Humidity | Pressure | Rain* | Wind** | Luminosity | Snow |
|---|---|---|---|---|---|---|---|
| 1777819868 | 26.67° C | 34% | 1012 hPa | 0 mm | - | 154 W/m² | - |
| 1777819565 | 26.11° C | 35% | 1012 hPa | 0 mm | - | 136 W/m² | - |
| 1777819262 | 26.11° C | 35% | 1012.2 hPa | 0 mm | - | 118 W/m² | - |
| 1777818959 | 25.56° C | 35% | 1012.2 hPa | 0 mm | - | 107 W/m² | - |
| 1777818655 | 25.56° C | 35% | 1011.9 hPa | 0 mm | - | 103 W/m² | - |
| 1777818353 | 25.56° C | 35% | 1012 hPa | 0 mm | - | 95 W/m² | - |
| 1777818049 | 25.56° C | 36% | 1012 hPa | 0 mm | - | 89 W/m² | - |
| 1777817746 | 25° C | 36% | 1012 hPa | 0 mm | - | 84 W/m² | - |
| 1777817444 | 25° C | 36% | 1012 hPa | 0 mm | - | 77 W/m² | - |
| 1777817139 | 25° C | 36% | 1011.9 hPa | 0 mm | - | 71 W/m² | - |
| 1777816837 | 25° C | 36% | 1012.1 hPa | 0 mm | - | 58 W/m² | - |
| 1777816534 | 25° C | 37% | 1011.9 hPa | 0 mm | - | 54 W/m² | - |
| 1777816231 | 24.44° C | 36% | 1011.7 hPa | 0 mm | - | 54 W/m² | - |
| 1777815929 | 24.44° C | 37% | 1011.7 hPa | 0 mm | - | 50 W/m² | - |
| 1777815626 | 24.44° C | 36% | 1011.7 hPa | 0 mm | - | 42 W/m² | - |
| 1777815323 | 24.44° C | 37% | 1011.6 hPa | 0 mm | - | 43 W/m² | - |
| 1777815020 | 24.44° C | 37% | 1011.5 hPa | 0 mm | - | 37 W/m² | - |
| 1777814716 | 24.44° C | 37% | 1011.4 hPa | 0 mm | - | 33 W/m² | - |
| 1777814413 | 24.44° C | 37% | 1011.4 hPa | 0 mm | - | 28 W/m² | - |
| 1777814110 | 24.44° C | 37% | 1011.4 hPa | 0 mm | - | 23 W/m² | - |
| 1777813807 | 24.44° C | 37% | 1011.4 hPa | 0 mm | - | 19 W/m² | - |
| 1777813504 | 24.44° C | 37% | 1011.5 hPa | 0 mm | - | 15 W/m² | - |
| 1777813202 | 24.44° C | 36% | 1011.4 hPa | 0 mm | - | 12 W/m² | - |
| 1777812900 | 24.44° C | 36% | 1011.1 hPa | 0 mm | - | 10 W/m² | - |
| 1777812595 | 24.44° C | 36% | 1011 hPa | 0 mm | - | 7 W/m² | - |
* Rain latest hour (hover to see other rain measurements)
** Current wind speed in m/s (hover to see current wind gust speed)